createdAt,value
2023-09-27T00:00:10.756Z,8.97
2023-09-27T00:02:40.766Z,11.83
2023-09-27T00:05:11.992Z,12.20
2023-09-27T00:07:42.032Z,10.57
2023-09-27T00:10:11.386Z,9.97
2023-09-27T00:12:41.525Z,9.00
2023-09-27T00:15:12.576Z,10.27
2023-09-27T00:17:41.217Z,8.90
2023-09-27T00:20:12.796Z,8.27
2023-09-27T00:22:40.882Z,11.63
2023-09-27T00:25:12.574Z,12.00
2023-09-27T00:27:42.923Z,9.80
2023-09-27T00:30:14.832Z,11.20
2023-09-27T00:32:42.954Z,8.53
2023-09-27T00:35:15.680Z,10.17
2023-09-27T00:37:43.693Z,8.67
2023-09-27T00:40:15.802Z,9.60
2023-09-27T00:42:45.028Z,9.27
2023-09-27T00:45:12.999Z,9.80
2023-09-27T00:47:41.421Z,13.43
2023-09-27T00:50:10.955Z,9.17
2023-09-27T00:52:41.858Z,12.13
2023-09-27T00:55:12.127Z,11.13
2023-09-27T00:57:40.721Z,10.00
2023-09-27T01:00:12.542Z,11.10
2023-09-27T01:02:41.309Z,11.00
2023-09-27T01:05:10.998Z,15.90
2023-09-27T01:07:39.862Z,9.00
2023-09-27T01:10:08.856Z,11.97
2023-09-27T01:12:37.706Z,14.40
2023-09-27T01:15:07.493Z,11.20
2023-09-27T01:17:37.349Z,14.97
2023-09-27T01:20:12.403Z,10.30
2023-09-27T01:22:40.339Z,13.20
2023-09-27T01:25:13.422Z,11.60
2023-09-27T01:27:44.823Z,8.27
2023-09-27T01:30:13.655Z,10.20
2023-09-27T01:32:43.912Z,12.27
2023-09-27T01:35:11.890Z,12.97
2023-09-27T01:37:39.792Z,9.30
2023-09-27T01:40:15.826Z,10.03
2023-09-27T01:42:44.845Z,10.70
2023-09-27T01:45:14.739Z,13.63
2023-09-27T01:47:42.752Z,10.93
2023-09-27T01:50:11.507Z,11.50
2023-09-27T01:52:39.383Z,9.93
2023-09-27T01:55:09.403Z,10.30
2023-09-27T01:57:37.326Z,9.97
2023-09-27T02:00:10.906Z,9.83
2023-09-27T02:02:39.276Z,10.80
2023-09-27T02:05:08.275Z,10.10
2023-09-27T02:07:38.157Z,10.87
2023-09-27T02:10:06.606Z,9.70
2023-09-27T02:12:35.854Z,11.10
2023-09-27T02:15:03.745Z,10.20
2023-09-27T02:17:31.870Z,9.77
2023-09-27T02:19:59.807Z,9.30
2023-09-27T02:22:28.060Z,8.80
2023-09-27T02:24:58.648Z,11.63
2023-09-27T02:27:26.593Z,11.43
2023-09-27T02:29:55.809Z,10.03
2023-09-27T02:32:23.887Z,9.20
2023-09-27T02:34:52.592Z,8.87
2023-09-27T02:37:21.702Z,8.70
2023-09-27T02:39:49.705Z,9.40
2023-09-27T02:42:17.634Z,12.20
2023-09-27T02:44:45.759Z,9.23
2023-09-27T02:47:15.034Z,12.10
2023-09-27T02:49:42.929Z,9.00
2023-09-27T02:52:11.082Z,10.50
2023-09-27T02:54:38.893Z,8.83
2023-09-27T02:57:06.710Z,9.20
2023-09-27T02:59:34.801Z,11.70
2023-09-27T03:02:02.758Z,9.60
2023-09-27T03:04:33.086Z,13.07
2023-09-27T03:07:01.301Z,11.83
2023-09-27T03:09:29.187Z,11.50
2023-09-27T03:11:56.989Z,9.40
2023-09-27T03:14:25.364Z,9.60
2023-09-27T03:16:56.082Z,12.33
2023-09-27T03:19:24.290Z,10.50
2023-09-27T03:21:53.550Z,12.50
2023-09-27T03:24:21.597Z,11.20
2023-09-27T03:26:50.196Z,11.50
2023-09-27T03:29:18.112Z,9.80
2023-09-27T03:31:46.256Z,10.60
2023-09-27T03:34:14.097Z,12.43
2023-09-27T03:36:41.964Z,9.27
2023-09-27T03:39:11.156Z,9.10
2023-09-27T03:41:40.135Z,11.70
2023-09-27T03:44:08.129Z,11.80
2023-09-27T03:46:36.053Z,10.30
2023-09-27T03:49:04.635Z,12.83
2023-09-27T03:51:32.464Z,10.43
2023-09-27T03:54:00.334Z,8.60
2023-09-27T03:56:29.608Z,10.07
2023-09-27T03:58:57.548Z,9.77
2023-09-27T04:01:25.409Z,10.10
2023-09-27T04:03:53.498Z,9.87
2023-09-27T04:06:21.818Z,12.40
2023-09-27T04:08:49.632Z,13.37
2023-09-27T04:11:17.480Z,10.77
2023-09-27T04:13:46.914Z,10.50
2023-09-27T04:16:14.787Z,8.90
2023-09-27T04:18:42.682Z,9.60
2023-09-27T04:21:12.140Z,14.03
2023-09-27T04:23:40.624Z,9.60
2023-09-27T04:26:08.647Z,10.00
2023-09-27T04:28:36.947Z,9.77
2023-09-27T04:31:06.189Z,11.90
2023-09-27T04:33:34.017Z,9.27
2023-09-27T04:36:01.860Z,10.00
2023-09-27T04:38:29.789Z,8.97
2023-09-27T04:40:57.640Z,10.07
2023-09-27T04:43:25.556Z,9.00
2023-09-27T04:45:53.427Z,9.00
2023-09-27T04:48:22.963Z,11.30
2023-09-27T04:50:50.943Z,10.20
2023-09-27T04:53:18.862Z,9.27
2023-09-27T04:55:46.955Z,11.13
2023-09-27T04:58:17.817Z,10.07
2023-09-27T05:00:46.189Z,15.23
2023-09-27T05:03:14.128Z,11.00
2023-09-27T05:05:43.393Z,10.77
2023-09-27T05:08:11.294Z,8.90
2023-09-27T05:10:39.192Z,9.27
2023-09-27T05:13:07.366Z,9.80
2023-09-27T05:15:35.484Z,10.97
2023-09-27T05:18:03.461Z,10.07
2023-09-27T05:20:31.424Z,9.00
2023-09-27T05:23:00.718Z,10.40
2023-09-27T05:25:28.609Z,11.10
2023-09-27T05:27:58.091Z,11.00
2023-09-27T05:30:26.837Z,11.70
2023-09-27T05:32:55.009Z,10.63
2023-09-27T05:35:23.389Z,10.10
2023-09-27T05:37:51.426Z,12.00
2023-09-27T05:40:20.608Z,10.30
2023-09-27T05:42:48.460Z,12.53
2023-09-27T05:45:16.354Z,14.00
2023-09-27T05:47:44.405Z,14.83
2023-09-27T05:50:14.206Z,10.13
2023-09-27T05:52:45.066Z,11.10
2023-09-27T05:55:13.591Z,13.63
2023-09-27T05:57:42.834Z,12.80
2023-09-27T06:00:22.668Z,12.40
2023-09-27T06:02:50.634Z,14.40
2023-09-27T06:05:19.145Z,13.67
2023-09-27T06:07:47.006Z,13.60
2023-09-27T06:10:14.796Z,16.13
2023-09-27T06:12:43.967Z,11.93
2023-09-27T06:15:13.367Z,11.57
2023-09-27T06:17:41.707Z,10.90
2023-09-27T06:20:13.403Z,10.10
2023-09-27T06:22:43.446Z,9.73
2023-09-27T06:25:11.476Z,11.30
2023-09-27T06:27:40.749Z,11.37
2023-09-27T06:30:12.679Z,11.33
2023-09-27T06:32:40.689Z,11.83
2023-09-27T06:35:14.190Z,12.33
2023-09-27T06:37:44.842Z,11.70
2023-09-27T06:40:17.217Z,11.70
2023-09-27T06:42:45.906Z,9.57
2023-09-27T06:45:15.732Z,10.03
2023-09-27T06:47:46.233Z,10.60
2023-09-27T06:50:14.951Z,11.70
2023-09-27T06:52:42.968Z,14.00
2023-09-27T06:55:12.931Z,16.73
2023-09-27T06:57:42.783Z,13.20
2023-09-27T07:00:14.112Z,12.10
2023-09-27T07:02:44.930Z,13.73
2023-09-27T07:05:13.383Z,13.03
2023-09-27T07:07:41.764Z,18.03
2023-09-27T07:10:11.167Z,16.67
2023-09-27T07:12:39.349Z,16.50
2023-09-27T07:15:13.167Z,15.80
2023-09-27T07:17:41.347Z,17.07
2023-09-27T07:20:18.163Z,14.63
2023-09-27T07:22:46.104Z,15.80
2023-09-27T07:25:17.877Z,18.00
2023-09-27T07:27:47.281Z,22.67
2023-09-27T07:30:19.198Z,18.63
2023-09-27T07:32:47.811Z,21.65
2023-09-27T07:35:18.127Z,22.97
2023-09-27T07:37:46.431Z,24.97
2023-09-27T07:40:15.383Z,19.80
2023-09-27T07:42:44.344Z,17.73
2023-09-27T07:45:22.107Z,16.67
2023-09-27T07:47:52.640Z,16.90
2023-09-27T07:50:22.591Z,17.13
2023-09-27T07:52:50.726Z,15.50
2023-09-27T07:55:18.936Z,16.67
2023-09-27T07:57:47.132Z,13.63
2023-09-27T08:00:18.405Z,16.33
2023-09-27T08:02:47.213Z,16.30
2023-09-27T08:05:17.993Z,11.70
2023-09-27T08:07:47.400Z,10.80
2023-09-27T08:10:21.140Z,13.00
2023-09-27T08:12:50.410Z,10.67
2023-09-27T08:15:19.624Z,15.03
2023-09-27T08:17:48.741Z,11.63
2023-09-27T08:20:17.093Z,11.63
2023-09-27T08:22:49.425Z,11.20
2023-09-27T08:25:17.958Z,10.33
2023-09-27T08:27:51.565Z,10.47
2023-09-27T08:30:20.707Z,10.40
2023-09-27T08:32:49.024Z,9.23
2023-09-27T08:35:17.523Z,9.10
2023-09-27T08:37:45.522Z,10.10
2023-09-27T08:40:15.293Z,9.33
2023-09-27T08:42:44.779Z,7.40
2023-09-27T08:45:14.822Z,10.33
2023-09-27T08:47:44.192Z,10.70
2023-09-27T08:50:15.405Z,10.60
2023-09-27T08:52:48.057Z,11.00
2023-09-27T08:55:19.082Z,8.77
2023-09-27T08:57:48.204Z,9.77
2023-09-27T09:00:17.705Z,8.13
2023-09-27T09:02:48.606Z,8.13
2023-09-27T09:05:19.137Z,7.00
2023-09-27T09:07:47.149Z,7.50
2023-09-27T09:10:16.195Z,11.87
2023-09-27T09:12:46.460Z,9.70
2023-09-27T09:15:29.241Z,10.77
2023-09-27T09:17:59.053Z,10.10
2023-09-27T09:20:33.686Z,10.37
2023-09-27T09:23:05.777Z,9.67
2023-09-27T09:25:44.291Z,12.03
2023-09-27T09:28:16.638Z,10.80
2023-09-27T09:30:47.283Z,9.43
2023-09-27T09:33:19.372Z,7.90
2023-09-27T09:35:48.076Z,10.30
2023-09-27T09:38:26.060Z,7.10
2023-09-27T09:40:54.996Z,13.47
2023-09-27T09:43:35.413Z,8.47
2023-09-27T09:46:08.027Z,7.50
2023-09-27T09:48:36.849Z,7.30
2023-09-27T09:51:07.688Z,8.13
2023-09-27T09:53:43.921Z,7.03
2023-09-27T09:58:54.453Z,8.17
2023-09-27T10:01:25.197Z,9.17
2023-09-27T10:03:54.411Z,10.60
2023-09-27T10:06:36.411Z,10.70
2023-09-27T10:09:14.883Z,7.77
2023-09-27T10:11:46.776Z,10.50
2023-09-27T10:14:17.851Z,9.10
2023-09-27T10:16:46.560Z,8.60
2023-09-27T10:19:27.130Z,7.40
2023-09-27T10:22:05.860Z,9.30
2023-09-27T10:24:36.186Z,10.07
2023-09-27T10:27:04.266Z,8.37
2023-09-27T10:29:35.208Z,9.50
2023-09-27T10:32:17.372Z,9.40
2023-09-27T10:34:45.344Z,8.73
2023-09-27T10:37:19.266Z,7.70
2023-09-27T10:40:21.997Z,11.20
2023-09-27T10:42:50.374Z,8.37
2023-09-27T10:45:19.810Z,10.43
2023-09-27T10:47:51.056Z,8.20
2023-09-27T10:50:31.903Z,7.47
2023-09-27T10:53:01.278Z,9.60
2023-09-27T10:55:39.644Z,9.57
2023-09-27T10:58:07.624Z,9.83
2023-09-27T11:00:50.451Z,8.27
2023-09-27T11:03:19.122Z,9.80
2023-09-27T11:05:47.862Z,6.93
2023-09-27T11:08:22.605Z,9.20
2023-09-27T11:10:53.693Z,9.23
2023-09-27T11:13:22.551Z,9.10
2023-09-27T11:15:52.954Z,9.70
2023-09-27T11:18:20.933Z,9.07
2023-09-27T11:20:49.057Z,11.77
2023-09-27T11:23:16.976Z,10.10
2023-09-27T11:25:46.800Z,8.93
2023-09-27T11:28:16.355Z,7.33
2023-09-27T11:30:44.320Z,12.70
2023-09-27T11:33:17.942Z,9.43
2023-09-27T11:35:50.310Z,9.73
2023-09-27T11:38:18.344Z,10.47
2023-09-27T11:40:47.567Z,8.50
2023-09-27T11:43:15.739Z,10.13
2023-09-27T11:45:45.181Z,10.00
2023-09-27T11:48:14.918Z,9.53
2023-09-27T11:50:43.111Z,8.63
2023-09-27T11:53:12.021Z,8.23
2023-09-27T11:55:41.024Z,9.27
2023-09-27T11:58:09.563Z,8.13
2023-09-27T12:00:37.517Z,7.33
2023-09-27T12:03:05.929Z,10.37
2023-09-27T12:05:37.276Z,7.67
2023-09-27T12:08:06.129Z,9.00
2023-09-27T12:10:34.146Z,10.63
2023-09-27T12:13:02.197Z,8.07
2023-09-27T12:15:30.578Z,6.80
2023-09-27T12:17:58.583Z,11.13
2023-09-27T12:20:39.354Z,10.50
2023-09-27T12:23:11.566Z,8.50
2023-09-27T12:25:39.764Z,8.17
2023-09-27T12:28:07.857Z,10.03
2023-09-27T12:30:35.801Z,9.63
2023-09-27T12:33:06.274Z,8.47
2023-09-27T12:35:34.328Z,8.20
2023-09-27T12:38:05.213Z,7.47
2023-09-27T12:40:35.147Z,7.33
2023-09-27T12:43:04.006Z,10.30
2023-09-27T12:45:31.908Z,8.60
2023-09-27T12:48:00.472Z,7.40
2023-09-27T12:50:28.909Z,8.53
2023-09-27T12:52:57.075Z,9.63
2023-09-27T12:55:25.834Z,9.50
2023-09-27T12:57:55.303Z,12.73
2023-09-27T13:00:23.263Z,9.63
2023-09-27T13:02:51.456Z,9.73
2023-09-27T13:05:19.513Z,12.03
2023-09-27T13:07:47.391Z,11.00
2023-09-27T13:10:15.337Z,13.07
2023-09-27T13:12:44.143Z,14.73
2023-09-27T13:15:13.792Z,11.60
2023-09-27T13:17:41.974Z,16.93
2023-09-27T13:20:11.610Z,7.77
2023-09-27T13:22:40.724Z,11.73
2023-09-27T13:25:11.905Z,8.83
2023-09-27T13:27:41.750Z,8.23
2023-09-27T13:30:25.659Z,9.00
2023-09-27T13:33:01.604Z,8.47
2023-09-27T13:35:29.730Z,8.23
2023-09-27T13:37:57.657Z,10.30
2023-09-27T13:40:25.539Z,8.70
2023-09-27T13:42:53.409Z,7.47
2023-09-27T13:45:23.034Z,9.70
2023-09-27T13:47:51.192Z,8.70
2023-09-27T13:50:19.951Z,12.03
2023-09-27T13:52:48.400Z,14.80
2023-09-27T13:55:16.491Z,10.30
2023-09-27T13:57:44.367Z,10.03
2023-09-27T14:00:14.539Z,10.40
2023-09-27T14:02:44.532Z,7.63
2023-09-27T14:05:12.795Z,9.70
2023-09-27T14:07:41.382Z,10.23
2023-09-27T14:10:10.314Z,9.27
2023-09-27T14:12:38.214Z,7.93
2023-09-27T14:15:07.546Z,11.77
2023-09-27T14:17:35.454Z,13.97
2023-09-27T14:20:06.852Z,7.93
2023-09-27T14:22:35.436Z,12.20
2023-09-27T14:25:04.681Z,13.20
2023-09-27T14:27:33.056Z,15.80
2023-09-27T14:30:02.087Z,12.43
2023-09-27T14:32:30.170Z,8.47
2023-09-27T14:34:58.783Z,10.23
2023-09-27T14:37:28.384Z,9.93
2023-09-27T14:39:56.580Z,8.80
2023-09-27T14:42:25.698Z,9.60
2023-09-27T14:44:56.080Z,9.87
2023-09-27T14:47:26.531Z,9.43
2023-09-27T14:49:58.334Z,11.97
2023-09-27T14:52:28.120Z,9.57
2023-09-27T14:54:55.966Z,11.70
2023-09-27T14:57:23.899Z,8.40
2023-09-27T14:59:52.100Z,9.30
2023-09-27T15:02:20.091Z,8.03
2023-09-27T15:04:48.128Z,8.83
2023-09-27T15:07:21.413Z,9.47
2023-09-27T15:09:50.766Z,12.50
2023-09-27T15:12:20.484Z,7.97
2023-09-27T15:14:50.168Z,10.47
2023-09-27T15:17:20.158Z,9.90
2023-09-27T15:19:49.787Z,9.70
2023-09-27T15:22:20.921Z,9.87
2023-09-27T15:24:50.079Z,9.73
2023-09-27T15:27:18.001Z,10.17
2023-09-27T15:29:45.860Z,16.83
2023-09-27T15:32:13.829Z,8.87
2023-09-27T15:34:41.794Z,8.17
2023-09-27T15:37:10.895Z,9.17
2023-09-27T15:39:40.308Z,9.60
2023-09-27T15:42:10.607Z,9.90
2023-09-27T15:44:40.797Z,9.17
2023-09-27T15:47:08.891Z,12.03
2023-09-27T15:49:36.762Z,8.70
2023-09-27T15:52:04.869Z,10.10
2023-09-27T15:54:34.172Z,11.20
2023-09-27T15:57:02.085Z,10.40
2023-09-27T15:59:31.268Z,10.30
2023-09-27T16:01:59.183Z,9.47
2023-09-27T16:04:28.106Z,9.43
2023-09-27T16:06:57.983Z,9.07
2023-09-27T16:09:26.281Z,12.17
2023-09-27T16:11:55.314Z,14.23
2023-09-27T16:14:25.275Z,12.27
2023-09-27T16:16:55.274Z,8.30
2023-09-27T16:19:23.148Z,10.10
2023-09-27T16:21:51.842Z,10.90
2023-09-27T16:24:19.766Z,13.93
2023-09-27T16:26:49.444Z,11.13
2023-09-27T16:29:17.362Z,14.73
2023-09-27T16:31:46.649Z,9.80
2023-09-27T16:34:16.309Z,14.33
2023-09-27T16:36:45.984Z,13.77
2023-09-27T16:39:14.988Z,14.53
2023-09-27T16:41:42.877Z,15.30
2023-09-27T16:44:10.710Z,14.33
2023-09-27T16:46:38.564Z,12.40
2023-09-27T16:49:06.534Z,15.57
2023-09-27T16:51:35.866Z,10.93
2023-09-27T16:54:04.002Z,11.70
2023-09-27T16:56:33.143Z,11.80
2023-09-27T16:59:00.971Z,12.67
2023-09-27T17:01:28.972Z,17.20
2023-09-27T17:03:57.025Z,16.10
2023-09-27T17:06:24.862Z,11.03
2023-09-27T17:08:54.375Z,13.70
2023-09-27T17:11:23.838Z,9.50
2023-09-27T17:13:53.863Z,12.63
2023-09-27T17:16:23.149Z,11.70
2023-09-27T17:18:52.205Z,11.77
2023-09-27T17:21:20.328Z,12.67
2023-09-27T17:23:49.112Z,12.97
2023-09-27T17:26:18.675Z,13.70
2023-09-27T17:28:46.635Z,11.20
2023-09-27T17:31:14.588Z,10.93
2023-09-27T17:33:43.988Z,9.63
2023-09-27T17:36:12.569Z,11.13
2023-09-27T17:38:43.416Z,9.53
2023-09-27T17:41:11.284Z,10.53
2023-09-27T17:43:40.752Z,12.20
2023-09-27T17:46:21.832Z,10.63
2023-09-27T17:48:50.027Z,9.73
2023-09-27T17:51:18.123Z,12.90
2023-09-27T17:53:47.356Z,10.93
2023-09-27T17:56:15.242Z,12.67
2023-09-27T17:58:44.663Z,11.50
2023-09-27T18:01:12.709Z,11.30
2023-09-27T18:03:40.805Z,12.23
2023-09-27T18:06:11.091Z,15.70
2023-09-27T18:08:40.144Z,14.33
2023-09-27T18:11:09.155Z,11.30
2023-09-27T18:13:37.161Z,11.40
2023-09-27T18:16:13.652Z,11.77
2023-09-27T18:18:45.148Z,10.90
2023-09-27T18:21:14.190Z,12.77
2023-09-27T18:23:46.249Z,10.63
2023-09-27T18:26:14.458Z,10.50
2023-09-27T18:28:42.448Z,11.57
2023-09-27T18:31:12.123Z,14.40
2023-09-27T18:33:42.645Z,14.53
2023-09-27T18:36:10.548Z,11.05
2023-09-27T18:38:38.415Z,13.00
2023-09-27T18:41:09.302Z,11.33
2023-09-27T18:43:37.342Z,9.70
2023-09-27T18:46:06.690Z,15.73
2023-09-27T18:48:36.115Z,13.40
2023-09-27T18:51:04.343Z,11.80
2023-09-27T18:53:32.396Z,11.50
2023-09-27T18:56:00.866Z,12.10
2023-09-27T18:58:28.934Z,12.73
2023-09-27T19:00:57.243Z,11.73
2023-09-27T19:03:25.309Z,11.90
2023-09-27T19:05:54.525Z,12.80
2023-09-27T19:08:22.653Z,12.73
2023-09-27T19:10:50.907Z,12.93
2023-09-27T19:13:18.813Z,19.33
2023-09-27T19:15:46.671Z,12.27
2023-09-27T19:18:14.549Z,11.70
2023-09-27T19:20:42.454Z,10.23
2023-09-27T19:23:11.689Z,10.67
2023-09-27T19:25:40.138Z,12.67
2023-09-27T19:28:08.194Z,13.00
2023-09-27T19:30:36.111Z,14.30
2023-09-27T19:33:04.219Z,10.17
2023-09-27T19:35:32.339Z,12.60
2023-09-27T19:38:00.196Z,13.53
2023-09-27T19:40:29.462Z,9.13
2023-09-27T19:42:57.346Z,14.83
2023-09-27T19:45:25.262Z,11.10
2023-09-27T19:47:53.197Z,13.63
2023-09-27T19:50:21.148Z,12.53
2023-09-27T19:52:49.825Z,12.13
2023-09-27T19:55:17.872Z,11.47
2023-09-27T19:57:47.542Z,13.13
2023-09-27T20:00:17.587Z,10.07
2023-09-27T20:02:47.811Z,10.10
2023-09-27T20:05:16.798Z,12.70
2023-09-27T20:07:46.910Z,11.80
2023-09-27T20:10:14.972Z,10.33
2023-09-27T20:12:43.119Z,12.70
2023-09-27T20:15:14.199Z,12.77
2023-09-27T20:17:42.213Z,10.97
2023-09-27T20:20:11.182Z,13.27
2023-09-27T20:22:39.145Z,10.90
2023-09-27T20:25:11.058Z,11.87
2023-09-27T20:27:39.223Z,11.10
2023-09-27T20:30:08.330Z,10.13
2023-09-27T20:32:37.939Z,13.00
2023-09-27T20:35:06.628Z,12.40
2023-09-27T20:37:34.913Z,14.47
2023-09-27T20:40:02.909Z,11.83
2023-09-27T20:42:30.797Z,10.97
2023-09-27T20:44:58.621Z,10.13
2023-09-27T20:47:27.858Z,16.87
2023-09-27T20:49:57.230Z,14.97
2023-09-27T20:52:25.186Z,10.13
2023-09-27T20:54:53.055Z,11.60
2023-09-27T20:57:21.416Z,10.30
2023-09-27T20:59:49.358Z,10.60
2023-09-27T21:02:17.253Z,11.83
2023-09-27T21:04:45.159Z,11.90
2023-09-27T21:07:14.458Z,13.93
2023-09-27T21:09:42.409Z,12.10
2023-09-27T21:12:10.706Z,14.67
2023-09-27T21:14:39.300Z,16.73
2023-09-27T21:17:07.251Z,13.40
2023-09-27T21:19:35.324Z,18.43
2023-09-27T21:22:03.182Z,15.53
2023-09-27T21:24:32.410Z,11.43
2023-09-27T21:27:00.271Z,17.43
2023-09-27T21:29:28.150Z,16.40
2023-09-27T21:31:56.324Z,22.70
2023-09-27T21:34:24.345Z,17.03
2023-09-27T21:36:52.628Z,14.23
2023-09-27T21:39:20.547Z,12.67
2023-09-27T21:41:49.842Z,12.97
2023-09-27T21:44:21.384Z,12.80
2023-09-27T21:46:51.751Z,16.67
2023-09-27T21:49:21.059Z,16.90
2023-09-27T21:51:49.211Z,17.00
2023-09-27T21:54:17.329Z,12.60
2023-09-27T21:56:45.421Z,13.13
2023-09-27T21:59:14.698Z,13.33
2023-09-27T22:01:42.736Z,11.73
2023-09-27T22:04:10.915Z,18.10
2023-09-27T22:06:39.050Z,12.70
2023-09-27T22:09:07.040Z,15.13
2023-09-27T22:11:39.400Z,13.23
2023-09-27T22:14:07.439Z,15.77
2023-09-27T22:16:37.458Z,13.93
2023-09-27T22:19:13.116Z,12.47
2023-09-27T22:21:45.867Z,13.40
2023-09-27T22:24:14.638Z,16.17
2023-09-27T22:26:46.520Z,16.63
2023-09-27T22:29:15.197Z,13.87
2023-09-27T22:31:45.697Z,15.93
2023-09-27T22:34:17.805Z,15.60
2023-09-27T22:36:48.585Z,12.30
2023-09-27T22:39:17.509Z,14.87
2023-09-27T22:41:47.188Z,14.40
2023-09-27T22:44:21.076Z,12.37
2023-09-27T22:46:52.553Z,14.40
2023-09-27T22:49:22.340Z,14.70
2023-09-27T22:51:50.414Z,13.00
2023-09-27T22:54:19.992Z,12.73
2023-09-27T22:56:49.556Z,15.53
2023-09-27T22:59:18.173Z,13.90
2023-09-27T23:01:51.634Z,16.67
2023-09-27T23:04:24.291Z,14.10
2023-09-27T23:07:01.628Z,14.53
2023-09-27T23:09:35.361Z,15.40
2023-09-27T23:12:17.359Z,16.73
2023-09-27T23:14:59.271Z,14.70
2023-09-27T23:17:30.941Z,18.80
2023-09-27T23:20:00.764Z,15.83
2023-09-27T23:22:48.754Z,17.42
2023-09-27T23:25:30.696Z,13.73
2023-09-27T23:28:03.459Z,12.47
2023-09-27T23:30:30.377Z,16.13
2023-09-27T23:33:01.387Z,17.00
2023-09-27T23:35:31.438Z,17.03
2023-09-27T23:38:19.549Z,14.10
2023-09-27T23:40:49.350Z,18.00
2023-09-27T23:43:17.377Z,15.00
2023-09-27T23:45:46.521Z,14.77
2023-09-27T23:48:14.637Z,19.93
2023-09-27T23:50:45.054Z,20.37
2023-09-27T23:53:12.914Z,17.20
2023-09-27T23:55:42.863Z,13.23
2023-09-27T23:58:13.637Z,15.03
